sensor_id;sensor_type;location;lat;lon;timestamp;pressure;altitude;pressure_sealevel;temperature;humidity
11440;BME280;5776;51.814;4.510;2023-02-28T00:01:03;103228.06;;;4.48;91.35
11440;BME280;5776;51.814;4.510;2023-02-28T00:03:28;103224.34;;;4.49;91.24
11440;BME280;5776;51.814;4.510;2023-02-28T00:05:54;103219.16;;;4.47;92.08
11440;BME280;5776;51.814;4.510;2023-02-28T00:08:20;103214.19;;;4.44;91.28
11440;BME280;5776;51.814;4.510;2023-02-28T00:10:46;103210.44;;;4.45;92.02
11440;BME280;5776;51.814;4.510;2023-02-28T00:13:12;103213.31;;;4.44;91.27
11440;BME280;5776;51.814;4.510;2023-02-28T00:15:38;103217.47;;;4.46;91.91
11440;BME280;5776;51.814;4.510;2023-02-28T00:18:04;103212.50;;;4.43;91.14
11440;BME280;5776;51.814;4.510;2023-02-28T00:20:30;103215.19;;;4.43;90.83
11440;BME280;5776;51.814;4.510;2023-02-28T00:22:56;103217.44;;;4.40;91.69
11440;BME280;5776;51.814;4.510;2023-02-28T00:25:24;103214.91;;;4.38;92.07
11440;BME280;5776;51.814;4.510;2023-02-28T00:27:50;103215.94;;;4.37;91.50
11440;BME280;5776;51.814;4.510;2023-02-28T00:30:19;103221.31;;;4.37;91.85
11440;BME280;5776;51.814;4.510;2023-02-28T00:32:45;103225.03;;;4.36;91.52
11440;BME280;5776;51.814;4.510;2023-02-28T00:35:11;103218.16;;;4.33;92.16
11440;BME280;5776;51.814;4.510;2023-02-28T00:37:38;103216.34;;;4.34;91.71
11440;BME280;5776;51.814;4.510;2023-02-28T00:40:05;103219.38;;;4.31;92.09
11440;BME280;5776;51.814;4.510;2023-02-28T00:42:32;103221.72;;;4.34;91.51
11440;BME280;5776;51.814;4.510;2023-02-28T00:44:59;103228.09;;;4.33;91.56
11440;BME280;5776;51.814;4.510;2023-02-28T00:47:25;103234.69;;;4.30;92.11
11440;BME280;5776;51.814;4.510;2023-02-28T00:49:51;103230.78;;;4.33;92.39
11440;BME280;5776;51.814;4.510;2023-02-28T00:52:17;103222.06;;;4.31;91.72
11440;BME280;5776;51.814;4.510;2023-02-28T00:54:43;103220.41;;;4.30;92.43
11440;BME280;5776;51.814;4.510;2023-02-28T00:57:09;103223.09;;;4.30;93.19
11440;BME280;5776;51.814;4.510;2023-02-28T00:59:34;103227.28;;;4.32;92.50
11440;BME280;5776;51.814;4.510;2023-02-28T01:02:00;103231.00;;;4.31;92.74
11440;BME280;5776;51.814;4.510;2023-02-28T01:04:26;103221.06;;;4.32;93.18
11440;BME280;5776;51.814;4.510;2023-02-28T01:06:52;103229.31;;;4.30;93.30
11440;BME280;5776;51.814;4.510;2023-02-28T01:09:18;103232.00;;;4.30;93.34
11440;BME280;5776;51.814;4.510;2023-02-28T01:11:44;103233.84;;;4.30;93.12
11440;BME280;5776;51.814;4.510;2023-02-28T01:14:16;103233.47;;;4.33;92.92
11440;BME280;5776;51.814;4.510;2023-02-28T01:16:42;103224.41;;;4.34;93.50
11440;BME280;5776;51.814;4.510;2023-02-28T01:19:08;103231.44;;;4.35;94.27
11440;BME280;5776;51.814;4.510;2023-02-28T01:21:34;103229.78;;;4.34;93.65
11440;BME280;5776;51.814;4.510;2023-02-28T01:24:02;103227.09;;;4.34;94.19
11440;BME280;5776;51.814;4.510;2023-02-28T01:26:29;103230.59;;;4.35;94.19
11440;BME280;5776;51.814;4.510;2023-02-28T01:28:55;103223.38;;;4.35;94.56
11440;BME280;5776;51.814;4.510;2023-02-28T01:31:22;103222.34;;;4.36;94.58
11440;BME280;5776;51.814;4.510;2023-02-28T01:33:48;103223.19;;;4.37;94.49
11440;BME280;5776;51.814;4.510;2023-02-28T01:36:17;103225.03;;;4.36;94.23
11440;BME280;5776;51.814;4.510;2023-02-28T01:38:44;103221.31;;;4.37;94.66
11440;BME280;5776;51.814;4.510;2023-02-28T01:46:13;103216.78;;;4.38;95.06
11440;BME280;5776;51.814;4.510;2023-02-28T01:48:48;103214.09;;;4.38;94.75
11440;BME280;5776;51.814;4.510;2023-02-28T01:52:01;103220.28;;;4.38;94.34
11440;BME280;5776;51.814;4.510;2023-02-28T01:54:18;103207.66;;;4.39;94.77
11440;BME280;5776;51.814;4.510;2023-02-28T01:56:51;103209.34;;;4.40;95.68
11440;BME280;5776;51.814;4.510;2023-02-28T01:59:29;103208.31;;;4.41;94.83
11440;BME280;5776;51.814;4.510;2023-02-28T02:01:57;103203.75;;;4.41;95.80
11440;BME280;5776;51.814;4.510;2023-02-28T02:04:26;103204.81;;;4.40;94.91
11440;BME280;5776;51.814;4.510;2023-02-28T02:06:57;103190.31;;;4.41;95.68
11440;BME280;5776;51.814;4.510;2023-02-28T02:09:24;103193.84;;;4.42;95.66
11440;BME280;5776;51.814;4.510;2023-02-28T02:11:50;103186.78;;;4.41;95.14
11440;BME280;5776;51.814;4.510;2023-02-28T02:17:06;103190.97;;;4.43;95.13
11440;BME280;5776;51.814;4.510;2023-02-28T02:20:04;103185.56;;;4.43;95.83
11440;BME280;5776;51.814;4.510;2023-02-28T02:31:18;103193.66;;;4.43;95.60
11440;BME280;5776;51.814;4.510;2023-02-28T02:34:12;103189.47;;;4.41;95.67
11440;BME280;5776;51.814;4.510;2023-02-28T02:36:50;103193.00;;;4.41;96.02
11440;BME280;5776;51.814;4.510;2023-02-28T02:45:19;103192.19;;;4.41;96.00
11440;BME280;5776;51.814;4.510;2023-02-28T02:47:48;103196.72;;;4.40;96.34
11440;BME280;5776;51.814;4.510;2023-02-28T02:50:24;103185.97;;;4.40;95.94
11440;BME280;5776;51.814;4.510;2023-02-28T02:52:55;103177.06;;;4.40;97.03
11440;BME280;5776;51.814;4.510;2023-02-28T02:55:23;103175.19;;;4.40;96.33
11440;BME280;5776;51.814;4.510;2023-02-28T02:57:53;103177.88;;;4.40;96.89
11440;BME280;5776;51.814;4.510;2023-02-28T03:00:25;103180.59;;;4.40;96.16
11440;BME280;5776;51.814;4.510;2023-02-28T03:02:54;103175.19;;;4.40;96.66
11440;BME280;5776;51.814;4.510;2023-02-28T03:05:24;103172.50;;;4.40;96.76
11440;BME280;5776;51.814;4.510;2023-02-28T03:07:51;103176.03;;;4.41;97.18
11440;BME280;5776;51.814;4.510;2023-02-28T03:10:34;103176.84;;;4.41;96.00
11440;BME280;5776;51.814;4.510;2023-02-28T03:18:58;103179.53;;;4.41;96.62
11440;BME280;5776;51.814;4.510;2023-02-28T03:21:35;103188.66;;;4.40;96.81
11440;BME280;5776;51.814;4.510;2023-02-28T03:24:41;103200.25;;;4.41;96.37
11440;BME280;5776;51.814;4.510;2023-02-28T03:27:31;103201.06;;;4.41;96.90
11440;BME280;5776;51.814;4.510;2023-02-28T03:30:06;103193.84;;;4.42;97.39
11440;BME280;5776;51.814;4.510;2023-02-28T03:32:41;103196.72;;;4.40;96.86
11440;BME280;5776;51.814;4.510;2023-02-28T03:35:19;103197.75;;;4.39;97.17
11440;BME280;5776;51.814;4.510;2023-02-28T03:37:50;103202.09;;;4.40;97.02
11440;BME280;5776;51.814;4.510;2023-02-28T03:40:21;103196.72;;;4.40;96.53
11440;BME280;5776;51.814;4.510;2023-02-28T03:42:53;103204.81;;;4.40;96.72
11440;BME280;5776;51.814;4.510;2023-02-28T03:45:25;103201.28;;;4.40;97.43
11440;BME280;5776;51.814;4.510;2023-02-28T03:50:37;103200.06;;;4.42;97.48
11440;BME280;5776;51.814;4.510;2023-02-28T03:53:20;103201.06;;;4.41;97.58
11440;BME280;5776;51.814;4.510;2023-02-28T04:00:57;103203.97;;;4.40;97.56
11440;BME280;5776;51.814;4.510;2023-02-28T04:03:35;103189.69;;;4.39;97.88
11440;BME280;5776;51.814;4.510;2023-02-28T04:06:01;103184.31;;;4.39;97.70
11440;BME280;5776;51.814;4.510;2023-02-28T04:08:27;103189.69;;;4.39;97.61
11440;BME280;5776;51.814;4.510;2023-02-28T04:10:58;103194.22;;;4.39;98.22
11440;BME280;5776;51.814;4.510;2023-02-28T04:13:26;103195.06;;;4.39;97.88
11440;BME280;5776;51.814;4.510;2023-02-28T04:15:52;103191.34;;;4.40;98.21
11440;BME280;5776;51.814;4.510;2023-02-28T04:18:18;103197.13;;;4.37;98.65
11440;BME280;5776;51.814;4.510;2023-02-28T04:20:44;103195.06;;;4.39;98.99
11440;BME280;5776;51.814;4.510;2023-02-28T04:23:09;103187.19;;;4.38;98.54
11440;BME280;5776;51.814;4.510;2023-02-28T04:25:35;103194.41;;;4.37;98.49
11440;BME280;5776;51.814;4.510;2023-02-28T04:28:01;103193.38;;;4.38;97.51
11440;BME280;5776;51.814;4.510;2023-02-28T04:30:27;103194.22;;;4.39;97.78
11440;BME280;5776;51.814;4.510;2023-02-28T04:32:55;103194.41;;;4.37;98.17
11440;BME280;5776;51.814;4.510;2023-02-28T04:35:21;103184.50;;;4.38;98.67
11440;BME280;5776;51.814;4.510;2023-02-28T04:37:47;103185.53;;;4.37;97.62
11440;BME280;5776;51.814;4.510;2023-02-28T04:40:13;103196.06;;;4.38;97.73
11440;BME280;5776;51.814;4.510;2023-02-28T04:42:38;103195.06;;;4.39;98.10
11440;BME280;5776;51.814;4.510;2023-02-28T04:45:04;103193.38;;;4.38;98.03
11440;BME280;5776;51.814;4.510;2023-02-28T04:47:30;103200.81;;;4.36;98.75
11440;BME280;5776;51.814;4.510;2023-02-28T04:49:56;103198.97;;;4.37;98.51
11440;BME280;5776;51.814;4.510;2023-02-28T04:52:22;103206.19;;;4.36;99.22
11440;BME280;5776;51.814;4.510;2023-02-28T04:54:48;103212.44;;;4.37;98.44
11440;BME280;5776;51.814;4.510;2023-02-28T04:57:15;103201.66;;;4.37;97.93
11440;BME280;5776;51.814;4.510;2023-02-28T04:59:41;103204.34;;;4.37;98.00
11440;BME280;5776;51.814;4.510;2023-02-28T05:02:06;103208.88;;;4.36;99.28
11440;BME280;5776;51.814;4.510;2023-02-28T05:04:33;103212.59;;;4.35;98.77
11440;BME280;5776;51.814;4.510;2023-02-28T05:07:00;103209.91;;;4.35;98.92
11440;BME280;5776;51.814;4.510;2023-02-28T05:09:27;103219.03;;;4.34;98.48
11440;BME280;5776;51.814;4.510;2023-02-28T05:11:54;103220.69;;;4.35;99.09
11440;BME280;5776;51.814;4.510;2023-02-28T05:14:20;103210.09;;;4.33;99.00
11440;BME280;5776;51.814;4.510;2023-02-28T05:16:46;103228.75;;;4.35;98.45
11440;BME280;5776;51.814;4.510;2023-02-28T05:19:12;103221.50;;;4.36;98.27
11440;BME280;5776;51.814;4.510;2023-02-28T05:21:40;103221.50;;;4.36;98.33
11440;BME280;5776;51.814;4.510;2023-02-28T05:24:10;103224.03;;;4.37;98.30
11440;BME280;5776;51.814;4.510;2023-02-28T05:26:37;103220.69;;;4.35;98.41
11440;BME280;5776;51.814;4.510;2023-02-28T05:29:04;103227.91;;;4.35;98.13
11440;BME280;5776;51.814;4.510;2023-02-28T05:31:31;103226.88;;;4.36;98.59
11440;BME280;5776;51.814;4.510;2023-02-28T05:33:57;103224.41;;;4.34;98.83
11440;BME280;5776;51.814;4.510;2023-02-28T05:36:23;103219.03;;;4.34;98.18
11440;BME280;5776;51.814;4.510;2023-02-28T05:38:50;103227.09;;;4.34;97.83
11440;BME280;5776;51.814;4.510;2023-02-28T05:41:17;103229.78;;;4.34;97.04
11440;BME280;5776;51.814;4.510;2023-02-28T05:43:45;103224.19;;;4.36;96.80
11440;BME280;5776;51.814;4.510;2023-02-28T05:46:12;103226.50;;;4.39;97.19
11440;BME280;5776;51.814;4.510;2023-02-28T05:48:39;103230.50;;;4.43;96.23
11440;BME280;5776;51.814;4.510;2023-02-28T05:51:07;103224.84;;;4.38;96.79
11440;BME280;5776;51.814;4.510;2023-02-28T05:53:33;103222.97;;;4.38;96.31
11440;BME280;5776;51.814;4.510;2023-02-28T05:55:59;103229.41;;;4.37;95.10
11440;BME280;5776;51.814;4.510;2023-02-28T05:58:25;103228.56;;;4.37;96.23
11440;BME280;5776;51.814;4.510;2023-02-28T06:00:54;103237.66;;;4.36;95.87
11440;BME280;5776;51.814;4.510;2023-02-28T06:03:20;103229.78;;;4.34;95.82
11440;BME280;5776;51.814;4.510;2023-02-28T06:05:46;103223.53;;;4.33;95.58
11440;BME280;5776;51.814;4.510;2023-02-28T06:08:12;103229.78;;;4.34;94.61
11440;BME280;5776;51.814;4.510;2023-02-28T06:10:38;103224.75;;;4.31;94.85
11440;BME280;5776;51.814;4.510;2023-02-28T06:13:04;103224.13;;;4.29;93.58
11440;BME280;5776;51.814;4.510;2023-02-28T06:15:31;103217.88;;;4.28;93.96
11440;BME280;5776;51.814;4.510;2023-02-28T06:17:57;103220.78;;;4.27;92.50
11440;BME280;5776;51.814;4.510;2023-02-28T06:20:25;103219.03;;;4.34;93.09
11440;BME280;5776;51.814;4.510;2023-02-28T06:22:58;103227.50;;;4.52;93.08
11440;BME280;5776;51.814;4.510;2023-02-28T06:25:27;103226.00;;;4.65;93.32
11440;BME280;5776;51.814;4.510;2023-02-28T06:27:54;103229.59;;;4.72;93.83
11440;BME280;5776;51.814;4.510;2023-02-28T06:30:20;103234.59;;;4.75;94.03
11440;BME280;5776;51.814;4.510;2023-02-28T06:32:50;103237.94;;;4.77;94.22
11440;BME280;5776;51.814;4.510;2023-02-28T06:35:17;103239.41;;;4.80;95.26
11440;BME280;5776;51.814;4.510;2023-02-28T06:37:43;103250.63;;;4.83;95.06
11440;BME280;5776;51.814;4.510;2023-02-28T06:40:10;103239.84;;;4.83;94.61
11440;BME280;5776;51.814;4.510;2023-02-28T06:42:36;103234.09;;;4.86;95.56
11440;BME280;5776;51.814;4.510;2023-02-28T06:45:02;103232.25;;;4.87;95.54
11440;BME280;5776;51.814;4.510;2023-02-28T06:47:36;103243.19;;;4.85;95.25
11440;BME280;5776;51.814;4.510;2023-02-28T06:50:02;103248.41;;;4.87;94.23
11440;BME280;5776;51.814;4.510;2023-02-28T06:52:29;103244.56;;;4.60;95.45
11440;BME280;5776;51.814;4.510;2023-02-28T06:54:54;103236.81;;;4.35;95.69
11440;BME280;5776;51.814;4.510;2023-02-28T06:57:28;103240.28;;;4.29;96.28
11440;BME280;5776;51.814;4.510;2023-02-28T07:00:00;103242.03;;;4.22;96.36
11440;BME280;5776;51.814;4.510;2023-02-28T07:02:27;103243.97;;;4.13;96.64
11440;BME280;5776;51.814;4.510;2023-02-28T07:04:53;103252.25;;;4.11;97.51
11440;BME280;5776;51.814;4.510;2023-02-28T07:07:19;103250.56;;;4.10;96.89
11440;BME280;5776;51.814;4.510;2023-02-28T07:09:45;103252.97;;;4.05;97.39
11440;BME280;5776;51.814;4.510;2023-02-28T07:12:10;103256.03;;;4.02;97.86
11440;BME280;5776;51.814;4.510;2023-02-28T07:14:37;103255.88;;;4.04;98.28
11440;BME280;5776;51.814;4.510;2023-02-28T07:17:03;103260.38;;;4.03;98.04
11440;BME280;5776;51.814;4.510;2023-02-28T07:19:29;103262.91;;;4.05;97.59
11440;BME280;5776;51.814;4.510;2023-02-28T07:21:55;103259.38;;;4.04;98.08
11440;BME280;5776;51.814;4.510;2023-02-28T07:24:21;103251.69;;;4.01;98.38
11440;BME280;5776;51.814;4.510;2023-02-28T07:26:49;103259.38;;;4.04;98.85
11440;BME280;5776;51.814;4.510;2023-02-28T07:29:14;103255.66;;;4.05;97.88
11440;BME280;5776;51.814;4.510;2023-02-28T07:31:40;103251.09;;;4.06;98.88
11440;BME280;5776;51.814;4.510;2023-02-28T07:34:06;103251.50;;;4.03;99.12
11440;BME280;5776;51.814;4.510;2023-02-28T07:36:32;103251.50;;;4.03;98.72
11440;BME280;5776;51.814;4.510;2023-02-28T07:38:58;103246.31;;;4.01;99.13
11440;BME280;5776;51.814;4.510;2023-02-28T07:41:24;103258.25;;;3.99;99.50
11440;BME280;5776;51.814;4.510;2023-02-28T07:43:54;103255.38;;;4.00;99.03
11440;BME280;5776;51.814;4.510;2023-02-28T07:46:21;103248.34;;;3.99;99.20
11440;BME280;5776;51.814;4.510;2023-02-28T07:48:47;103246.13;;;4.03;99.23
11440;BME280;5776;51.814;4.510;2023-02-28T07:51:13;103253.63;;;4.07;99.57
11440;BME280;5776;51.814;4.510;2023-02-28T07:53:39;103249.72;;;4.10;99.83
11440;BME280;5776;51.814;4.510;2023-02-28T07:56:05;103248.06;;;4.09;99.67
11440;BME280;5776;51.814;4.510;2023-02-28T07:58:32;103238.81;;;4.11;99.18
11440;BME280;5776;51.814;4.510;2023-02-28T08:01:07;103248.34;;;4.14;99.27
11440;BME280;5776;51.814;4.510;2023-02-28T08:03:34;103245.06;;;4.19;99.86
11440;BME280;5776;51.814;4.510;2023-02-28T08:06:03;103244.44;;;4.17;100.00
11440;BME280;5776;51.814;4.510;2023-02-28T08:08:29;103251.22;;;4.13;100.00
11440;BME280;5776;51.814;4.510;2023-02-28T08:11:01;103241.84;;;4.08;100.00
11440;BME280;5776;51.814;4.510;2023-02-28T08:13:29;103242.03;;;4.07;100.00
11440;BME280;5776;51.814;4.510;2023-02-28T08:15:55;103250.94;;;4.07;100.00
11440;BME280;5776;51.814;4.510;2023-02-28T08:18:22;103246.59;;;4.06;100.00
11440;BME280;5776;51.814;4.510;2023-02-28T08:20:49;103253.81;;;4.06;100.00
11440;BME280;5776;51.814;4.510;2023-02-28T08:23:15;103256.50;;;4.06;100.00
11440;BME280;5776;51.814;4.510;2023-02-28T08:25:40;103248.41;;;4.06;100.00
11440;BME280;5776;51.814;4.510;2023-02-28T08:28:06;103253.47;;;4.09;100.00
11440;BME280;5776;51.814;4.510;2023-02-28T08:30:32;103248.03;;;4.39;99.73
11440;BME280;5776;51.814;4.510;2023-02-28T08:32:58;103254.44;;;4.52;98.96
11440;BME280;5776;51.814;4.510;2023-02-28T08:35:24;103269.81;;;4.59;98.44
11440;BME280;5776;51.814;4.510;2023-02-28T08:37:50;103266.56;;;4.63;99.01
11440;BME280;5776;51.814;4.510;2023-02-28T08:40:16;103262.66;;;4.66;98.02
11440;BME280;5776;51.814;4.510;2023-02-28T08:42:45;103256.06;;;4.68;98.06
11440;BME280;5776;51.814;4.510;2023-02-28T08:45:11;103263.94;;;4.70;97.88
11440;BME280;5776;51.814;4.510;2023-02-28T08:47:38;103255.66;;;4.71;98.50
11440;BME280;5776;51.814;4.510;2023-02-28T08:50:04;103252.78;;;4.73;97.49
11440;BME280;5776;51.814;4.510;2023-02-28T08:52:30;103262.16;;;4.77;96.91
11440;BME280;5776;51.814;4.510;2023-02-28T08:54:56;103257.16;;;4.74;97.54
11440;BME280;5776;51.814;4.510;2023-02-28T08:57:22;103247.88;;;4.76;97.84
11440;BME280;5776;51.814;4.510;2023-02-28T08:59:48;103241.47;;;4.78;97.35
11440;BME280;5776;51.814;4.510;2023-02-28T09:02:14;103249.72;;;4.76;97.59
11440;BME280;5776;51.814;4.510;2023-02-28T09:04:40;103259.28;;;4.79;98.17
11440;BME280;5776;51.814;4.510;2023-02-28T09:07:07;103272.56;;;4.80;97.53
11440;BME280;5776;51.814;4.510;2023-02-28T09:09:33;103263.84;;;4.78;97.24
11440;BME280;5776;51.814;4.510;2023-02-28T09:11:59;103259.28;;;4.79;97.68
11440;BME280;5776;51.814;4.510;2023-02-28T09:14:25;103268.81;;;4.81;97.00
11440;BME280;5776;51.814;4.510;2023-02-28T09:16:51;103260.41;;;4.84;97.06
11440;BME280;5776;51.814;4.510;2023-02-28T09:19:17;103256.22;;;4.82;97.03
11440;BME280;5776;51.814;4.510;2023-02-28T09:21:43;103247.53;;;4.86;97.83
11440;BME280;5776;51.814;4.510;2023-02-28T09:24:09;103257.31;;;4.87;97.32
11440;BME280;5776;51.814;4.510;2023-02-28T09:26:37;103266.41;;;4.86;97.79
11440;BME280;5776;51.814;4.510;2023-02-28T09:29:03;103252.75;;;4.88;97.47
11440;BME280;5776;51.814;4.510;2023-02-28T09:31:29;103265.19;;;4.89;97.95
11440;BME280;5776;51.814;4.510;2023-02-28T09:33:56;103270.38;;;4.90;97.61
11440;BME280;5776;51.814;4.510;2023-02-28T09:36:24;103267.69;;;4.90;97.85
11440;BME280;5776;51.814;4.510;2023-02-28T09:38:50;103261.28;;;4.91;96.58
11440;BME280;5776;51.814;4.510;2023-02-28T09:41:24;103263.97;;;4.91;96.97
11440;BME280;5776;51.814;4.510;2023-02-28T09:43:59;103271.88;;;4.93;97.57
11440;BME280;5776;51.814;4.510;2023-02-28T09:46:43;103266.47;;;4.93;97.57
11440;BME280;5776;51.814;4.510;2023-02-28T09:49:16;103276.03;;;4.95;97.67
11440;BME280;5776;51.814;4.510;2023-02-28T09:51:45;103273.34;;;4.95;97.18
11440;BME280;5776;51.814;4.510;2023-02-28T09:54:22;103268.59;;;4.97;97.66
11440;BME280;5776;51.814;4.510;2023-02-28T09:56:51;103268.59;;;4.97;97.19
11440;BME280;5776;51.814;4.510;2023-02-28T10:02:11;103264.69;;;5.00;96.52
11440;BME280;5776;51.814;4.510;2023-02-28T10:04:47;103282.34;;;5.03;96.85
11440;BME280;5776;51.814;4.510;2023-02-28T10:10:32;103284.00;;;5.04;97.79
11440;BME280;5776;51.814;4.510;2023-02-28T10:13:01;103271.56;;;5.03;96.58
11440;BME280;5776;51.814;4.510;2023-02-28T10:15:31;103268.03;;;5.02;98.11
11440;BME280;5776;51.814;4.510;2023-02-28T10:18:00;103264.13;;;5.05;97.49
11440;BME280;5776;51.814;4.510;2023-02-28T10:20:33;103264.94;;;5.05;97.66
11440;BME280;5776;51.814;4.510;2023-02-28T10:23:13;103272.84;;;5.07;97.15
11440;BME280;5776;51.814;4.510;2023-02-28T10:25:46;103263.56;;;5.09;96.68
11440;BME280;5776;51.814;4.510;2023-02-28T10:28:16;103258.16;;;5.09;97.85
11440;BME280;5776;51.814;4.510;2023-02-28T10:30:51;103262.34;;;5.12;96.97
11440;BME280;5776;51.814;4.510;2023-02-28T10:33:22;103253.41;;;5.11;96.93
11440;BME280;5776;51.814;4.510;2023-02-28T10:35:48;103247.00;;;5.12;96.78
11440;BME280;5776;51.814;4.510;2023-02-28T10:38:19;103243.72;;;5.17;97.03
11440;BME280;5776;51.814;4.510;2023-02-28T10:40:45;103240.44;;;5.22;96.75
11440;BME280;5776;51.814;4.510;2023-02-28T10:45:39;103230.13;;;5.25;97.02
11440;BME280;5776;51.814;4.510;2023-02-28T10:55:41;103226.53;;;5.39;95.62
11440;BME280;5776;51.814;4.510;2023-02-28T10:58:23;103223.22;;;5.44;95.93
11440;BME280;5776;51.814;4.510;2023-02-28T11:00:51;103222.84;;;5.47;95.96
11440;BME280;5776;51.814;4.510;2023-02-28T11:03:29;103221.22;;;5.53;95.99
11440;BME280;5776;51.814;4.510;2023-02-28T11:05:56;103221.88;;;5.55;94.97
11440;BME280;5776;51.814;4.510;2023-02-28T11:08:22;103229.38;;;5.59;95.15
11440;BME280;5776;51.814;4.510;2023-02-28T11:10:57;103230.19;;;5.60;95.54
11440;BME280;5776;51.814;4.510;2023-02-28T11:13:28;103228.31;;;5.60;94.56
11440;BME280;5776;51.814;4.510;2023-02-28T11:15:58;103232.69;;;5.61;94.68
11440;BME280;5776;51.814;4.510;2023-02-28T11:18:31;103219.41;;;5.60;95.24
11440;BME280;5776;51.814;4.510;2023-02-28T11:20:59;103220.25;;;5.60;94.28
11440;BME280;5776;51.814;4.510;2023-02-28T11:23:29;103229.78;;;5.63;95.15
11440;BME280;5776;51.814;4.510;2023-02-28T11:25:59;103226.06;;;5.64;93.71
11440;BME280;5776;51.814;4.510;2023-02-28T11:28:37;103226.91;;;5.65;94.03
11440;BME280;5776;51.814;4.510;2023-02-28T11:33:48;103214.25;;;5.65;95.50
11440;BME280;5776;51.814;4.510;2023-02-28T11:36:24;103220.66;;;5.64;93.94
11440;BME280;5776;51.814;4.510;2023-02-28T11:38:52;103210.75;;;5.65;95.30
11440;BME280;5776;51.814;4.510;2023-02-28T11:44:31;103206.59;;;5.69;94.46
11440;BME280;5776;51.814;4.510;2023-02-28T11:47:09;103202.09;;;5.76;93.99
11440;BME280;5776;51.814;4.510;2023-02-28T11:55:20;103203.44;;;5.93;93.53
11440;BME280;5776;51.814;4.510;2023-02-28T11:58:09;103192.91;;;5.98;93.41
11440;BME280;5776;51.814;4.510;2023-02-28T12:11:44;103179.00;;;6.01;91.40
11440;BME280;5776;51.814;4.510;2023-02-28T12:28:49;103182.31;;;5.97;82.68
11440;BME280;5776;51.814;4.510;2023-02-28T12:31:24;103179.16;;;5.93;82.49
11440;BME280;5776;51.814;4.510;2023-02-28T12:33:54;103174.06;;;6.05;82.23
11440;BME280;5776;51.814;4.510;2023-02-28T12:36:23;103178.81;;;6.03;82.30
11440;BME280;5776;51.814;4.510;2023-02-28T12:44:00;103167.41;;;6.01;79.67
11440;BME280;5776;51.814;4.510;2023-02-28T12:46:49;103163.69;;;6.09;79.09
11440;BME280;5776;51.814;4.510;2023-02-28T12:49:25;103161.22;;;6.07;80.87
11440;BME280;5776;51.814;4.510;2023-02-28T12:51:52;103163.69;;;6.09;80.04
11440;BME280;5776;51.814;4.510;2023-02-28T12:54:31;103162.88;;;6.08;81.01
11440;BME280;5776;51.814;4.510;2023-02-28T12:59:50;103147.72;;;6.14;80.05
11440;BME280;5776;51.814;4.510;2023-02-28T13:11:49;103137.53;;;6.02;80.38
11440;BME280;5776;51.814;4.510;2023-02-28T13:14:44;103131.31;;;6.09;80.04
11440;BME280;5776;51.814;4.510;2023-02-28T13:19:38;103122.19;;;6.03;79.28
11440;BME280;5776;51.814;4.510;2023-02-28T13:22:17;103117.19;;;6.06;78.98
11440;BME280;5776;51.814;4.510;2023-02-28T13:24:49;103116.38;;;6.06;78.70
11440;BME280;5776;51.814;4.510;2023-02-28T13:27:32;103112.22;;;6.03;79.19
11440;BME280;5776;51.814;4.510;2023-02-28T13:29:59;103119.28;;;6.04;79.63
11440;BME280;5776;51.814;4.510;2023-02-28T13:47:43;103116.47;;;5.84;78.21
11440;BME280;5776;51.814;4.510;2023-02-28T13:50:24;103109.63;;;5.82;73.36
11440;BME280;5776;51.814;4.510;2023-02-28T14:07:04;103107.75;;;5.89;79.11
11440;BME280;5776;51.814;4.510;2023-02-28T14:11:57;103110.53;;;5.96;80.29
11440;BME280;5776;51.814;4.510;2023-02-28T14:17:03;103096.63;;;5.99;80.24
11440;BME280;5776;51.814;4.510;2023-02-28T14:19:31;103095.38;;;6.01;81.99
11440;BME280;5776;51.814;4.510;2023-02-28T14:28:22;103090.63;;;6.03;82.11
11440;BME280;5776;51.814;4.510;2023-02-28T14:31:01;103086.50;;;6.08;83.22
11440;BME280;5776;51.814;4.510;2023-02-28T14:36:27;103086.50;;;6.08;83.27
11440;BME280;5776;51.814;4.510;2023-02-28T14:38:59;103082.97;;;6.07;84.16
11440;BME280;5776;51.814;4.510;2023-02-28T14:41:39;103088.97;;;6.02;81.74
11440;BME280;5776;51.814;4.510;2023-02-28T14:44:19;103090.44;;;6.05;81.40
11440;BME280;5776;51.814;4.510;2023-02-28T14:46:47;103092.09;;;6.06;83.24
11440;BME280;5776;51.814;4.510;2023-02-28T14:49:21;103086.72;;;6.19;81.64
11440;BME280;5776;51.814;4.510;2023-02-28T14:51:50;103092.56;;;6.23;82.84
11440;BME280;5776;51.814;4.510;2023-02-28T14:54:27;103097.53;;;6.26;83.32
11440;BME280;5776;51.814;4.510;2023-02-28T14:56:54;103085.50;;;6.28;83.41
11440;BME280;5776;51.814;4.510;2023-02-28T14:59:26;103087.97;;;6.17;85.18
11440;BME280;5776;51.814;4.510;2023-02-28T15:02:13;103087.34;;;6.15;85.03
11440;BME280;5776;51.814;4.510;2023-02-28T15:04:39;103079.69;;;6.32;86.24
11440;BME280;5776;51.814;4.510;2023-02-28T15:07:13;103081.59;;;6.38;85.13
11440;BME280;5776;51.814;4.510;2023-02-28T15:09:40;103080.31;;;6.34;83.85
11440;BME280;5776;51.814;4.510;2023-02-28T15:12:07;103084.50;;;6.43;85.42
11440;BME280;5776;51.814;4.510;2023-02-28T15:14:34;103077.25;;;6.50;83.90
11440;BME280;5776;51.814;4.510;2023-02-28T15:17:08;103079.53;;;6.53;85.87
11440;BME280;5776;51.814;4.510;2023-02-28T15:19:41;103088.69;;;6.52;85.82
11440;BME280;5776;51.814;4.510;2023-02-28T15:22:15;103083.03;;;6.47;85.19
11440;BME280;5776;51.814;4.510;2023-02-28T15:24:49;103082.44;;;6.45;85.20
11440;BME280;5776;51.814;4.510;2023-02-28T15:27:28;103085.34;;;6.50;85.50
11440;BME280;5776;51.814;4.510;2023-02-28T15:29:59;103078.06;;;6.51;85.70
11440;BME280;5776;51.814;4.510;2023-02-28T15:32:30;103088.44;;;6.47;86.02
11440;BME280;5776;51.814;4.510;2023-02-28T15:34:57;103088.84;;;6.44;86.32
11440;BME280;5776;51.814;4.510;2023-02-28T15:40:10;103082.88;;;6.55;86.56
11440;BME280;5776;51.814;4.510;2023-02-28T15:42:36;103081.19;;;6.54;85.87
11440;BME280;5776;51.814;4.510;2023-02-28T15:45:03;103084.72;;;6.48;86.18
11440;BME280;5776;51.814;4.510;2023-02-28T15:47:30;103082.44;;;6.45;84.73
11440;BME280;5776;51.814;4.510;2023-02-28T15:50:10;103073.91;;;6.48;85.76
11440;BME280;5776;51.814;4.510;2023-02-28T15:52:42;103078.47;;;6.54;87.37
11440;BME280;5776;51.814;4.510;2023-02-28T15:57:51;103075.59;;;6.56;88.47
11440;BME280;5776;51.814;4.510;2023-02-28T16:00:24;103080.16;;;6.62;88.49